Time;durP1;ratioP1;P1;durP2;ratioP2;P2;SDS_P1;SDS_P2;PMS_P1;PMS_P2;Temp;Humidity;BMP_temperature;BMP_pressure;BME280_temperature;BME280_humidity;BME280_pressure;Samples;Min_cycle;Max_cycle;Signal;HPM_P1;HPM_P2
2022/04/11 00:01:00;;;;;;;;;;;;;;;19.92;43.17;101455.50;4976839;28;4087;-60
2022/04/11 00:03:27;;;;;;;;;;;;;;;19.90;43.31;101458.25;4977697;28;4241;-60
2022/04/11 00:05:53;;;;;;;;;;;;;;;19.93;43.22;101456.25;4977838;28;4219;-60
2022/04/11 00:08:20;;;;;;;;;;;;;;;19.94;43.11;101452.75;4979028;28;4254;-60
2022/04/11 00:10:47;;;;;;;;;;;;;;;19.92;43.20;101452.63;4979842;28;4254;-60
2022/04/11 00:13:13;;;;;;;;;;;;;;;19.92;43.13;101449.00;4980246;28;4174;-61
2022/04/11 00:15:40;;;;;;;;;;;;;;;19.92;43.17;101454.75;4976824;28;4239;-60
2022/04/11 00:18:07;;;;;;;;;;;;;;;19.93;43.20;101457.00;4976166;28;5414;-60
2022/04/11 00:20:33;;;;;;;;;;;;;;;19.93;43.23;101456.25;4978046;28;4245;-60
2022/04/11 00:22:59;;;;;;;;;;;;;;;19.92;43.20;101461.25;4979720;28;4095;-61
2022/04/11 00:25:26;;;;;;;;;;;;;;;19.90;43.23;101458.25;4975859;28;4161;-60
2022/04/11 00:27:52;;;;;;;;;;;;;;;19.90;43.17;101458.25;4978812;28;4217;-60
2022/04/11 00:30:18;;;;;;;;;;;;;;;19.90;43.25;101458.25;4976854;28;4184;-60
2022/04/11 00:32:46;;;;;;;;;;;;;;;19.90;43.26;101463.25;4978656;28;5360;-60
2022/04/11 00:35:13;;;;;;;;;;;;;;;19.89;43.16;101451.03;4978981;28;5352;-61
2022/04/11 00:37:39;;;;;;;;;;;;;;;19.87;43.08;101453.78;4977206;28;4299;-60
2022/04/11 00:40:06;;;;;;;;;;;;;;;19.87;43.11;101460.25;4976513;28;4967;-61
2022/04/11 00:42:33;;;;;;;;;;;;;;;19.87;43.09;101453.78;4976314;28;5992;-60
2022/04/11 00:45:03;;;;;;;;;;;;;;;19.87;43.08;101453.78;4974109;28;4112;-60
2022/04/11 00:47:30;;;;;;;;;;;;;;;19.89;43.14;101462.53;4979438;28;4193;-60
2022/04/11 00:49:58;;;;;;;;;;;;;;;19.88;43.19;101449.50;4976222;28;4111;-60
2022/04/11 00:52:25;;;;;;;;;;;;;;;19.88;43.31;101452.38;4979278;28;4271;-60
2022/04/11 00:54:51;;;;;;;;;;;;;;;19.88;43.28;101456.03;4963420;28;4263;-60
2022/04/11 00:57:18;;;;;;;;;;;;;;;19.88;43.34;101443.75;4979317;28;4204;-60
2022/04/11 00:59:44;;;;;;;;;;;;;;;19.87;43.28;101456.66;4974484;28;4290;-60
2022/04/11 01:02:11;;;;;;;;;;;;;;;19.88;43.26;101458.13;4978692;28;5209;-60
2022/04/11 01:04:38;;;;;;;;;;;;;;;19.88;43.24;101449.50;4979139;28;4081;-60
2022/04/11 01:07:09;;;;;;;;;;;;;;;19.88;43.16;101447.41;4976342;28;5276;-60
2022/04/11 01:09:36;;;;;;;;;;;;;;;19.87;43.14;101448.75;4977705;28;4228;-60
2022/04/11 01:12:02;;;;;;;;;;;;;;;19.86;43.29;101453.03;4977089;28;4239;-60
2022/04/11 01:14:28;;;;;;;;;;;;;;;19.87;43.25;101456.66;4977349;28;5248;-60
2022/04/11 01:16:59;;;;;;;;;;;;;;;19.87;43.20;101459.53;4976165;28;5311;-60
2022/04/11 01:19:40;;;;;;;;;;;;;;;19.87;43.23;101460.25;4969950;28;4221;-60
2022/04/11 01:22:06;;;;;;;;;;;;;;;19.88;43.18;101455.25;4977036;28;5322;-61
2022/04/11 01:24:34;;;;;;;;;;;;;;;19.87;43.36;101456.66;4960663;28;4201;-60
2022/04/11 01:27:01;;;;;;;;;;;;;;;19.88;43.14;101455.25;4961080;28;4292;-60
2022/04/11 01:29:27;;;;;;;;;;;;;;;19.88;43.21;101455.25;4972081;28;4283;-60
2022/04/11 01:31:54;;;;;;;;;;;;;;;19.88;43.25;101456.03;4970655;28;4092;-60
2022/04/11 01:34:21;;;;;;;;;;;;;;;19.85;43.30;101456.53;4977587;28;5736;-60
2022/04/11 01:36:48;;;;;;;;;;;;;;;19.86;43.29;101453.03;4976890;28;4267;-61
2022/04/11 01:39:14;;;;;;;;;;;;;;;19.84;43.21;101452.91;4979927;28;4556;-61
2022/04/11 01:41:40;;;;;;;;;;;;;;;19.84;43.30;101450.03;4962448;28;4294;-60
2022/04/11 01:44:07;;;;;;;;;;;;;;;19.84;43.24;101457.91;4975649;28;4195;-60
2022/04/11 01:46:33;;;;;;;;;;;;;;;19.83;43.27;101450.66;4976857;28;4147;-60
2022/04/11 01:49:09;;;;;;;;;;;;;;;19.81;43.23;101457.06;4974000;28;4113;-60
2022/04/11 01:51:37;;;;;;;;;;;;;;;19.82;43.22;101449.91;4962452;28;4168;-60
2022/04/11 01:54:03;;;;;;;;;;;;;;;19.81;43.13;101456.28;4973635;28;4226;-60
2022/04/11 01:56:29;;;;;;;;;;;;;;;19.82;42.99;101454.91;4975886;28;4174;-61
2022/04/11 01:58:56;;;;;;;;;;;;;;;19.83;42.97;101447.78;4970472;28;4207;-60
2022/04/11 02:01:22;;;;;;;;;;;;;;;19.83;43.09;101453.53;4971602;28;4223;-60
2022/04/11 02:03:49;;;;;;;;;;;;;;;19.83;43.15;101457.16;4976760;28;4140;-60
2022/04/11 02:06:15;;;;;;;;;;;;;;;19.83;43.29;101456.41;4972588;28;4247;-60
2022/04/11 02:08:42;;;;;;;;;;;;;;;19.84;43.59;101455.78;4972807;28;4315;-60
2022/04/11 02:11:11;;;;;;;;;;;;;;;19.82;43.65;101460.66;4973511;28;5784;-61
2022/04/11 02:13:38;;;;;;;;;;;;;;;19.81;43.64;101456.28;4972878;28;4215;-60
2022/04/11 02:16:04;;;;;;;;;;;;;;;19.83;43.45;101456.41;4974062;28;4329;-60
2022/04/11 02:18:31;;;;;;;;;;;;;;;19.83;43.30;101459.28;4959366;28;4179;-60
2022/04/11 02:20:58;;;;;;;;;;;;;;;19.83;43.25;101453.53;4971537;28;5426;-60
2022/04/11 02:23:25;;;;;;;;;;;;;;;19.82;43.13;101452.78;4972999;28;4230;-60
2022/04/11 02:25:52;;;;;;;;;;;;;;;19.82;43.35;101452.78;4974916;28;4142;-60
2022/04/11 02:28:18;;;;;;;;;;;;;;;19.83;43.35;101453.53;4973451;28;4205;-60
2022/04/11 02:30:45;;;;;;;;;;;;;;;19.83;43.22;101453.53;4975506;28;4151;-60
2022/04/11 02:33:11;;;;;;;;;;;;;;;19.82;43.13;101455.66;4971881;28;4395;-61
2022/04/11 02:35:37;;;;;;;;;;;;;;;19.82;42.93;101452.06;4977515;28;5439;-60
2022/04/11 02:38:04;;;;;;;;;;;;;;;19.82;43.12;101446.31;4973593;28;4273;-60
2022/04/11 02:40:31;;;;;;;;;;;;;;;19.83;43.17;101444.91;4971972;28;4211;-60
2022/04/11 02:43:07;;;;;;;;;;;;;;;19.82;43.13;101441.28;4959697;28;4274;-60
2022/04/11 02:45:38;;;;;;;;;;;;;;;19.82;43.11;101437.69;4958099;28;4200;-60
2022/04/11 02:48:07;;;;;;;;;;;;;;;19.82;43.23;101441.28;4973159;28;5657;-60
2022/04/11 02:50:39;;;;;;;;;;;;;;;19.84;43.21;101443.56;4975809;28;4196;-60
2022/04/11 02:53:08;;;;;;;;;;;;;;;19.82;43.37;101440.56;4939358;28;965778;-61
2022/04/11 02:55:35;;;;;;;;;;;;;;;19.85;43.46;101436.41;4959376;28;4206;-61
2022/04/11 02:58:01;;;;;;;;;;;;;;;19.84;43.66;101444.28;4976306;28;4197;-60
2022/04/11 03:00:28;;;;;;;;;;;;;;;19.85;43.53;101445.78;4961037;28;4201;-60
2022/04/11 03:02:57;;;;;;;;;;;;;;;19.84;43.80;101438.53;4974989;28;4184;-60
2022/04/11 03:05:27;;;;;;;;;;;;;;;19.84;44.08;101435.66;4972155;28;6275;-60
2022/04/11 03:07:55;;;;;;;;;;;;;;;19.86;43.98;101435.03;4970789;28;5289;-60
2022/04/11 03:10:21;;;;;;;;;;;;;;;19.87;43.76;101433.66;4975594;28;4164;-60
2022/04/11 03:12:52;;;;;;;;;;;;;;;19.86;44.00;101429.31;4976022;28;4263;-60
2022/04/11 03:15:19;;;;;;;;;;;;;;;19.86;43.88;101435.78;4973959;28;5245;-60
2022/04/11 03:17:46;;;;;;;;;;;;;;;19.87;43.82;101436.53;4956799;28;6308;-60
2022/04/11 03:20:14;;;;;;;;;;;;;;;19.86;43.67;101440.78;4970830;28;4109;-61
2022/04/11 03:22:42;;;;;;;;;;;;;;;19.87;43.54;101437.28;4973462;28;4274;-61
2022/04/11 03:25:10;;;;;;;;;;;;;;;19.86;43.53;101441.53;4974203;28;4312;-60
2022/04/11 03:27:39;;;;;;;;;;;;;;;19.86;43.70;101440.78;4972584;28;5641;-60
2022/04/11 03:30:06;;;;;;;;;;;;;;;19.90;43.93;101454.63;4972436;28;5290;-61
2022/04/11 03:32:35;;;;;;;;;;;;;;;19.87;43.57;101445.91;4958789;28;4557;-60
2022/04/11 03:35:03;;;;;;;;;;;;;;;19.88;43.62;101446.63;4971721;28;6668;-60
2022/04/11 03:37:30;;;;;;;;;;;;;;;19.89;43.70;101448.16;4973291;28;4064;-60
2022/04/11 03:40:07;;;;;;;;;;;;;;;19.90;43.86;101446.00;4972261;28;4047;-60
2022/04/11 03:42:33;;;;;;;;;;;;;;;19.88;43.88;101452.38;4973642;28;4105;-60
2022/04/11 03:45:01;;;;;;;;;;;;;;;19.88;43.74;101450.28;4972940;28;4252;-60
2022/04/11 03:47:28;;;;;;;;;;;;;;;19.89;43.93;101451.03;4975267;28;4255;-60
2022/04/11 03:49:54;;;;;;;;;;;;;;;19.88;43.62;101444.53;4978344;28;5290;-60
2022/04/11 03:52:29;;;;;;;;;;;;;;;19.88;43.65;101449.50;4974117;28;5066;-60
2022/04/11 03:54:57;;;;;;;;;;;;;;;19.89;43.46;101451.03;4975694;28;4259;-60
2022/04/11 03:57:25;;;;;;;;;;;;;;;19.89;43.35;101456.78;4969316;28;4292;-60
2022/04/11 03:59:54;;;;;;;;;;;;;;;19.89;43.39;101451.03;4956869;28;4245;-60
2022/04/11 04:02:21;;;;;;;;;;;;;;;19.91;43.61;101454.00;4975397;28;4249;-60
2022/04/11 04:04:48;;;;;;;;;;;;;;;19.89;43.82;101459.66;4973041;28;4262;-60
2022/04/11 04:07:19;;;;;;;;;;;;;;;19.89;43.58;101459.66;4971889;28;4257;-60
2022/04/11 04:09:46;;;;;;;;;;;;;;;19.90;43.95;101454.63;4974347;28;4255;-60
2022/04/11 04:12:13;;;;;;;;;;;;;;;19.91;44.05;101456.88;4974595;28;4195;-62
2022/04/11 04:14:48;;;;;;;;;;;;;;;19.90;43.88;101458.25;4974377;28;4257;-61
2022/04/11 04:17:14;;;;;;;;;;;;;;;19.91;43.94;101459.03;4957453;28;4176;-60
2022/04/11 04:19:47;;;;;;;;;;;;;;;19.92;43.78;101464.13;4974297;28;4309;-60
2022/04/11 04:22:18;;;;;;;;;;;;;;;19.91;43.82;101464.78;4973563;28;5345;-61
2022/04/11 04:24:44;;;;;;;;;;;;;;;19.92;43.66;101458.38;4972562;28;6354;-61
2022/04/11 04:27:11;;;;;;;;;;;;;;;19.90;43.83;101458.25;4970260;28;4240;-60
2022/04/11 04:29:38;;;;;;;;;;;;;;;19.90;43.78;101461.13;4971612;28;4074;-61
2022/04/11 04:32:05;;;;;;;;;;;;;;;19.90;43.54;101451.75;4973395;28;4796;-60
2022/04/11 04:34:33;;;;;;;;;;;;;;;19.91;43.56;101456.88;4961248;28;5009;-60
2022/04/11 04:37:00;;;;;;;;;;;;;;;19.91;43.51;101454.00;4977548;28;4085;-60
2022/04/11 04:39:28;;;;;;;;;;;;;;;19.92;43.35;101455.50;4974331;28;3972;-61
2022/04/11 04:41:54;;;;;;;;;;;;;;;19.91;43.56;101462.63;4958249;28;4162;-60
2022/04/11 04:44:22;;;;;;;;;;;;;;;19.92;43.66;101461.25;4977276;28;4841;-60
2022/04/11 04:46:54;;;;;;;;;;;;;;;19.93;43.68;101464.88;4958416;28;4515;-60
2022/04/11 04:49:24;;;;;;;;;;;;;;;19.92;43.71;101455.50;4959203;28;5719;-60
2022/04/11 04:51:53;;;;;;;;;;;;;;;19.92;43.55;101455.50;4960449;28;4627;-60
2022/04/11 04:54:19;;;;;;;;;;;;;;;19.92;43.58;101463.38;4975995;28;5705;-60
2022/04/11 04:56:49;;;;;;;;;;;;;;;19.91;43.54;101465.50;4975520;28;4057;-60
2022/04/11 04:59:22;;;;;;;;;;;;;;;19.91;43.42;101462.63;4976647;28;5826;-60
2022/04/11 05:01:49;;;;;;;;;;;;;;;19.92;43.60;101458.38;4975694;28;4711;-60
2022/04/11 05:04:18;;;;;;;;;;;;;;;19.88;43.66;101463.88;4958489;28;5117;-61
2022/04/11 05:06:45;;;;;;;;;;;;;;;19.93;43.77;101465.63;4980588;28;4098;-61
2022/04/11 05:09:12;;;;;;;;;;;;;;;19.95;43.56;101471.50;4976790;28;4559;-60
2022/04/11 05:11:42;;;;;;;;;;;;;;;19.99;43.74;101477.47;4977435;28;4248;-60
2022/04/11 05:14:09;;;;;;;;;;;;;;;20.00;43.78;101475.34;4975195;28;4510;-62
2022/04/11 05:16:36;;;;;;;;;;;;;;;20.04;43.67;101482.09;4972861;28;5297;-61
2022/04/11 05:19:06;;;;;;;;;;;;;;;20.04;43.72;101487.84;4974282;28;4260;-62
2022/04/11 05:21:33;;;;;;;;;;;;;;;20.05;43.61;101479.97;4971144;28;5703;-61
2022/04/11 05:24:03;;;;;;;;;;;;;;;20.08;43.64;101490.19;4956880;28;4102;-61
2022/04/11 05:26:29;;;;;;;;;;;;;;;20.09;43.47;101486.69;4972303;28;4620;-61
2022/04/11 05:28:56;;;;;;;;;;;;;;;20.12;43.40;101487.56;4960895;28;5910;-61
2022/04/11 05:31:23;;;;;;;;;;;;;;;20.13;43.35;101489.03;4973435;28;5263;-61
2022/04/11 05:33:52;;;;;;;;;;;;;;;20.14;43.31;101496.28;4973364;28;4585;-60
2022/04/11 05:36:18;;;;;;;;;;;;;;;20.02;43.63;101493.47;4958399;28;4433;-60
2022/04/11 05:38:46;;;;;;;;;;;;;;;20.04;43.59;101502.22;4971659;28;4336;-61
2022/04/11 05:41:15;;;;;;;;;;;;;;;19.55;37.94;101495.69;4973419;28;4690;-60
2022/04/11 05:43:47;;;;;;;;;;;;;;;19.74;40.83;101491.78;4965529;28;6163;-61
2022/04/11 05:46:17;;;;;;;;;;;;;;;19.96;41.24;101492.38;4972962;28;4021;-60
2022/04/11 05:48:51;;;;;;;;;;;;;;;19.99;42.32;101494.72;4974371;28;4563;-58
2022/04/11 05:51:18;;;;;;;;;;;;;;;20.08;42.63;101490.19;4973670;28;4774;-59
2022/04/11 05:53:44;;;;;;;;;;;;;;;20.15;42.53;101499.91;4972014;28;4244;-58
2022/04/11 05:56:10;;;;;;;;;;;;;;;20.19;42.65;101506.63;4971095;28;4726;-58
2022/04/11 05:58:37;;;;;;;;;;;;;;;20.22;42.39;101508.25;4970510;28;4684;-61
2022/04/11 06:01:04;;;;;;;;;;;;;;;20.26;42.55;101502.00;4972305;28;4240;-60
2022/04/11 06:03:30;;;;;;;;;;;;;;;20.22;42.81;101505.38;4970307;28;4608;-57
2022/04/11 06:05:57;;;;;;;;;;;;;;;20.16;42.89;101507.91;4970125;28;4253;-59
2022/04/11 06:08:24;;;;;;;;;;;;;;;20.13;43.01;101505.53;4968798;28;4424;-59
2022/04/11 06:10:50;;;;;;;;;;;;;;;20.13;42.93;101508.41;4958166;28;4830;-59
2022/04/11 06:13:20;;;;;;;;;;;;;;;20.15;42.76;101505.66;4956779;28;4695;-53
2022/04/11 06:15:49;;;;;;;;;;;;;;;20.22;42.86;101516.13;4958130;28;4426;-57
2022/04/11 06:18:15;;;;;;;;;;;;;;;20.20;43.01;101513.13;4973949;28;6049;-55
2022/04/11 06:20:43;;;;;;;;;;;;;;;20.24;42.85;101516.25;4971049;28;5524;-57
2022/04/11 06:23:11;;;;;;;;;;;;;;;20.24;42.75;101513.38;4966091;28;4656;-47
2022/04/11 06:25:37;;;;;;;;;;;;;;;20.24;42.82;101519.13;4968491;28;5403;-50
2022/04/11 06:28:04;;;;;;;;;;;;;;;20.25;42.92;101523.50;4968254;28;4036;-59
2022/04/11 06:30:31;;;;;;;;;;;;;;;20.07;42.56;101529.69;4953870;28;4101;-48
2022/04/11 06:32:58;;;;;;;;;;;;;;;20.14;42.82;101532.94;4951527;28;4223;-48
2022/04/11 06:35:24;;;;;;;;;;;;;;;20.29;43.10;101526.59;4973028;28;4271;-47
2022/04/11 06:37:52;;;;;;;;;;;;;;;20.32;44.45;101522.47;4969537;28;4152;-51
2022/04/11 06:40:19;;;;;;;;;;;;;;;20.37;44.37;101521.31;4970173;28;4026;-48
2022/04/11 06:42:47;;;;;;;;;;;;;;;20.40;44.42;101531.56;4970731;28;4534;-50
2022/04/11 06:45:40;;;;;;;;;;;;;;;20.45;44.14;101527.53;4946749;28;4321;-49
2022/04/11 06:48:09;;;;;;;;;;;;;;;20.51;43.75;101530.75;4951861;28;5550;-50
2022/04/11 06:50:36;;;;;;;;;;;;;;;20.55;43.22;101527.38;4955065;28;4284;-49
2022/04/11 06:53:02;;;;;;;;;;;;;;;20.56;43.62;101525.22;4971975;28;5938;-47
2022/04/11 06:55:29;;;;;;;;;;;;;;;20.61;43.64;101532.72;4965990;28;4183;-49
2022/04/11 06:57:55;;;;;;;;;;;;;;;20.61;43.47;101532.72;4968988;28;4245;-55
2022/04/11 07:00:21;;;;;;;;;;;;;;;20.71;43.44;101530.44;4967842;28;4727;-53
2022/04/11 07:02:48;;;;;;;;;;;;;;;20.72;43.31;101531.91;4966565;28;5471;-56
2022/04/11 07:05:14;;;;;;;;;;;;;;;20.68;43.59;101537.44;4966748;28;4437;-57
2022/04/11 07:07:41;;;;;;;;;;;;;;;20.72;43.71;101540.56;4968401;28;4595;-48
2022/04/11 07:10:09;;;;;;;;;;;;;;;20.68;43.93;101543.97;4972802;28;4277;-45
2022/04/11 07:12:38;;;;;;;;;;;;;;;20.60;44.19;101537.75;4968207;28;4391;-46
2022/04/11 07:15:08;;;;;;;;;;;;;;;20.78;43.61;101532.25;4964499;28;4328;-49
2022/04/11 07:17:34;;;;;;;;;;;;;;;20.67;43.63;101530.19;4967233;28;4125;-51
2022/04/11 07:20:01;;;;;;;;;;;;;;;20.79;43.85;101533.75;4969312;28;4052;-49
2022/04/11 07:22:28;;;;;;;;;;;;;;;20.83;43.82;101550.50;4964172;28;4665;-49
2022/04/11 07:24:54;;;;;;;;;;;;;;;20.80;44.02;101532.38;4966443;28;4533;-54
2022/04/11 07:27:21;;;;;;;;;;;;;;;20.81;44.01;101542.50;4971941;28;4575;-47
2022/04/11 07:29:47;;;;;;;;;;;;;;;20.92;43.97;101530.16;4964240;28;4148;-49
2022/04/11 07:32:13;;;;;;;;;;;;;;;20.92;44.01;101543.81;4963215;28;4751;-49
2022/04/11 07:34:40;;;;;;;;;;;;;;;20.91;44.28;101537.31;4967060;28;4217;-50
2022/04/11 07:37:07;;;;;;;;;;;;;;;20.98;43.87;101540.50;4967119;28;4603;-50
2022/04/11 07:39:34;;;;;;;;;;;;;;;20.97;43.93;101544.78;4968615;28;4155;-49
2022/04/11 07:42:00;;;;;;;;;;;;;;;21.04;43.85;101535.09;4966901;28;5290;-50
2022/04/11 07:44:27;;;;;;;;;;;;;;;21.06;44.06;101538.81;4966954;28;3964;-48
2022/04/11 07:46:53;;;;;;;;;;;;;;;21.07;44.24;101542.44;4970301;28;4211;-48
2022/04/11 07:49:19;;;;;;;;;;;;;;;21.11;44.22;101548.44;4972892;28;4365;-53
2022/04/11 07:51:46;;;;;;;;;;;;;;;21.04;44.23;101537.97;4968601;28;4630;-55
2022/04/11 07:54:12;;;;;;;;;;;;;;;21.05;44.18;101542.31;4960256;28;4504;-50
2022/04/11 07:56:38;;;;;;;;;;;;;;;21.03;44.24;101542.97;4966823;28;4200;-48
2022/04/11 07:59:05;;;;;;;;;;;;;;;21.01;44.17;101539.25;4969086;28;4163;-60
2022/04/11 08:01:31;;;;;;;;;;;;;;;20.87;43.12;101537.09;4964554;28;6639;-54
2022/04/11 08:03:58;;;;;;;;;;;;;;;20.81;43.88;101539.63;4943578;28;7260;-52
2022/04/11 08:06:24;;;;;;;;;;;;;;;20.87;44.07;101542.09;4962659;28;4565;-52
2022/04/11 08:08:51;;;;;;;;;;;;;;;20.93;43.92;101543.16;4976432;28;4186;-49
2022/04/11 08:11:17;;;;;;;;;;;;;;;20.95;43.83;101530.28;4972002;28;4444;-49
2022/04/11 08:13:46;;;;;;;;;;;;;;;20.95;43.77;101533.16;4969333;28;4617;-48
2022/04/11 08:16:13;;;;;;;;;;;;;;;20.96;43.69;101543.28;4968437;28;4243;-50
2022/04/11 08:18:39;;;;;;;;;;;;;;;20.96;43.70;101537.50;4971516;28;4255;-52
2022/04/11 08:21:06;;;;;;;;;;;;;;;20.92;43.71;101533.03;4973745;28;4249;-50
2022/04/11 08:23:32;;;;;;;;;;;;;;;20.93;43.70;101540.28;4956058;28;6668;-49
2022/04/11 08:25:58;;;;;;;;;;;;;;;20.92;43.66;101541.69;4966541;28;4189;-51
2022/04/11 08:28:25;;;;;;;;;;;;;;;20.91;43.94;101548.81;4962049;28;5202;-48
2022/04/11 08:30:52;;;;;;;;;;;;;;;20.95;43.70;101547.53;4965568;28;4066;-54
2022/04/11 08:33:18;;;;;;;;;;;;;;;20.99;43.85;101548.50;4952000;28;7333;-50
2022/04/11 08:35:44;;;;;;;;;;;;;;;21.10;43.61;101541.19;4958599;28;5607;-54
2022/04/11 08:38:11;;;;;;;;;;;;;;;20.98;43.07;101546.25;4963190;28;4088;-52
2022/04/11 08:40:37;;;;;;;;;;;;;;;20.73;40.58;101544.94;4970973;28;4529;-55
2022/04/11 08:43:04;;;;;;;;;;;;;;;20.55;36.99;101546.75;4967108;28;4545;-55
2022/04/11 08:45:30;;;;;;;;;;;;;;;20.51;34.87;101542.25;4963695;28;7189;-54
2022/04/11 08:47:56;;;;;;;;;;;;;;;20.57;35.64;101547.66;4945485;28;6842;-59
2022/04/11 08:50:24;;;;;;;;;;;;;;;20.74;36.96;101555.06;4951824;28;7034;-59
2022/04/11 08:52:50;;;;;;;;;;;;;;;20.86;38.02;101541.31;4942287;28;7302;-56
2022/04/11 08:55:17;;;;;;;;;;;;;;;20.93;39.25;101534.53;4969991;28;4835;-56
2022/04/11 08:57:43;;;;;;;;;;;;;;;20.96;39.15;101534.63;4939462;28;7029;-56
2022/04/11 09:00:13;;;;;;;;;;;;;;;20.97;39.61;101534.00;4956894;28;7079;-51
2022/04/11 09:02:41;;;;;;;;;;;;;;;20.97;39.84;101530.38;4960125;28;6790;-52
2022/04/11 09:05:08;;;;;;;;;;;;;;;21.01;39.79;101534.22;4967548;28;4112;-52
2022/04/11 09:07:47;;;;;;;;;;;;;;;21.04;39.99;101523.56;4963029;28;7087;-53
2022/04/11 09:10:17;;;;;;;;;;;;;;;21.08;39.99;101526.66;4972109;28;5578;-54
2022/04/11 09:12:47;;;;;;;;;;;;;;;21.08;40.28;101520.91;4970070;28;4694;-57
2022/04/11 09:15:14;;;;;;;;;;;;;;;21.10;40.65;101529.66;4956928;28;7017;-59
2022/04/11 09:17:41;;;;;;;;;;;;;;;21.06;40.70;101518.66;4958921;28;6968;-54
2022/04/11 09:20:10;;;;;;;;;;;;;;;21.08;40.70;101527.41;4966616;28;4538;-59
2022/04/11 09:22:40;;;;;;;;;;;;;;;21.09;41.26;101525.28;4964526;28;4660;-59
2022/04/11 09:25:12;;;;;;;;;;;;;;;21.07;41.24;101519.41;4956060;28;7144;-58
2022/04/11 09:27:39;;;;;;;;;;;;;;;21.05;41.29;101516.41;4963911;28;6871;-58
2022/04/11 09:30:21;;;;;;;;;;;;;;;21.11;41.37;101519.63;4969485;28;5315;-55
2022/04/11 09:33:13;;;;;;;;;;;;;;;21.11;41.38;101514.59;4948095;28;6867;-59
2022/04/11 09:35:47;;;;;;;;;;;;;;;21.12;41.45;101518.25;4957272;28;4687;-57
2022/04/11 09:38:16;;;;;;;;;;;;;;;21.13;41.55;101519.75;4958229;28;4213;-57
2022/04/11 09:40:48;;;;;;;;;;;;;;;21.13;41.71;101513.97;4954506;28;4250;-56
2022/04/11 09:43:15;;;;;;;;;;;;;;;21.06;41.68;101512.16;4961007;28;5285;-53
2022/04/11 09:45:41;;;;;;;;;;;;;;;21.02;41.93;101509.06;4965269;28;4331;-50
2022/04/11 09:48:09;;;;;;;;;;;;;;;21.02;41.93;101506.19;4972331;28;4233;-51
2022/04/11 09:50:35;;;;;;;;;;;;;;;21.10;42.17;101521.03;4962807;28;6584;-59
2022/04/11 09:53:08;;;;;;;;;;;;;;;21.07;42.00;101508.66;4958592;28;4215;-58
2022/04/11 09:55:35;;;;;;;;;;;;;;;21.16;41.81;101509.06;4968916;28;4095;-57
2022/04/11 09:58:02;;;;;;;;;;;;;;;21.09;42.27;101502.25;4966841;28;4234;-60
2022/04/11 10:00:29;;;;;;;;;;;;;;;21.02;42.64;101503.31;4970840;28;4127;-54
2022/04/11 10:02:57;;;;;;;;;;;;;;;21.09;43.29;101499.34;4965669;28;4224;-51
2022/04/11 10:05:24;;;;;;;;;;;;;;;21.06;43.63;101503.53;4970578;28;4138;-49
2022/04/11 10:07:54;;;;;;;;;;;;;;;21.01;43.66;101504.69;4966524;28;4177;-50
2022/04/11 10:10:21;;;;;;;;;;;;;;;20.97;43.97;101492.97;4974033;28;4153;-49
2022/04/11 10:12:48;;;;;;;;;;;;;;;20.97;43.98;101490.81;4971101;28;4072;-52
2022/04/11 10:15:15;;;;;;;;;;;;;;;20.98;43.84;101495.19;4969468;28;4362;-65
2022/04/11 10:17:41;;;;;;;;;;;;;;;21.05;43.56;101487.63;4970907;28;4086;-47
2022/04/11 10:20:07;;;;;;;;;;;;;;;21.17;43.30;101494.03;4964473;28;5417;-47
2022/04/11 10:22:38;;;;;;;;;;;;;;;21.12;43.66;101483.69;4968268;28;5359;-52
2022/04/11 10:25:06;;;;;;;;;;;;;;;21.15;43.73;101493.19;4969249;28;4233;-48
2022/04/11 10:27:32;;;;;;;;;;;;;;;21.11;43.81;101494.44;4965662;28;4186;-51
2022/04/11 10:29:59;;;;;;;;;;;;;;;21.12;43.75;101492.34;4967282;28;4186;-47
2022/04/11 10:32:26;;;;;;;;;;;;;;;21.13;43.92;101493.81;4967317;28;4132;-50
2022/04/11 10:35:01;;;;;;;;;;;;;;;21.21;43.73;101488.50;4958305;28;5351;-51
2022/04/11 10:37:28;;;;;;;;;;;;;;;21.21;42.95;101481.97;4961209;28;4378;-54
2022/04/11 10:40:13;;;;;;;;;;;;;;;21.29;43.07;101485.28;4960194;28;4146;-52
2022/04/11 10:42:40;;;;;;;;;;;;;;;21.44;42.75;101478.91;4966666;28;4072;-59
2022/04/11 10:45:08;;;;;;;;;;;;;;;21.46;42.70;101476.16;4958376;28;4214;-59
2022/04/11 10:47:35;;;;;;;;;;;;;;;21.49;42.83;101471.22;4972112;28;4845;-58
2022/04/11 10:50:01;;;;;;;;;;;;;;;21.49;42.83;101477.00;4966003;28;5325;-55
2022/04/11 10:52:31;;;;;;;;;;;;;;;21.51;42.86;101474.97;4972195;28;4493;-53
2022/04/11 10:55:08;;;;;;;;;;;;;;;21.55;42.98;101468.63;4967500;28;4299;-55
2022/04/11 10:57:35;;;;;;;;;;;;;;;21.49;42.57;101465.47;4970169;28;4267;-55
2022/04/11 11:00:02;;;;;;;;;;;;;;;21.44;42.96;101472.38;4971687;28;4070;-57
2022/04/11 11:02:48;;;;;;;;;;;;;;;21.44;42.86;101476.03;4966991;28;4225;-52
2022/04/11 11:05:27;;;;;;;;;;;;;;;21.72;42.07;101459.44;4963250;28;4623;-56
2022/04/11 11:08:05;;;;;;;;;;;;;;;21.77;42.47;101465.41;4968462;28;4342;-54
2022/04/11 11:10:58;;;;;;;;;;;;;;;21.60;42.56;101473.25;4971433;28;4276;-54
2022/04/11 11:13:34;;;;;;;;;;;;;;;21.52;42.93;101467.06;4964820;28;4146;-54
2022/04/11 11:16:06;;;;;;;;;;;;;;;21.48;42.61;101466.84;4952019;28;4276;-54
2022/04/11 11:18:48;;;;;;;;;;;;;;;21.49;42.75;101471.22;4967676;28;4237;-55
2022/04/11 11:21:19;;;;;;;;;;;;;;;21.48;42.92;101461.81;4962814;28;4201;-57
2022/04/11 11:24:08;;;;;;;;;;;;;;;21.50;42.79;101455.41;4966623;28;5207;-55
2022/04/11 11:26:54;;;;;;;;;;;;;;;21.55;42.95;101445.59;4964219;28;4014;-54
2022/04/11 11:29:23;;;;;;;;;;;;;;;21.50;42.91;101449.66;4962161;28;5219;-54
2022/04/11 11:31:53;;;;;;;;;;;;;;;21.54;42.96;101439.09;4966901;28;4070;-59
2022/04/11 11:34:20;;;;;;;;;;;;;;;21.52;42.80;101444.00;4961028;28;4637;-56
2022/04/11 11:36:46;;;;;;;;;;;;;;;21.52;43.15;101449.75;4966105;28;4261;-56
2022/04/11 11:39:13;;;;;;;;;;;;;;;21.55;42.95;101436.94;4969729;28;4587;-52
2022/04/11 11:41:42;;;;;;;;;;;;;;;21.51;42.63;101439.66;4968468;28;4065;-55
2022/04/11 11:44:09;;;;;;;;;;;;;;;21.57;42.38;101442.81;4963736;28;4519;-57
2022/04/11 11:46:50;;;;;;;;;;;;;;;21.50;43.22;101432.38;4966126;28;4289;-58
2022/04/11 11:49:17;;;;;;;;;;;;;;;21.48;43.18;101440.91;4974262;28;5229;-57
2022/04/11 11:51:44;;;;;;;;;;;;;;;21.46;43.32;101440.81;4969230;28;4367;-59
2022/04/11 11:54:10;;;;;;;;;;;;;;;21.60;42.67;101437.91;4967792;28;4742;-57
2022/04/11 11:56:40;;;;;;;;;;;;;;;21.43;42.86;101433.44;4967258;28;4081;-57
2022/04/11 11:59:07;;;;;;;;;;;;;;;21.39;43.28;101436.09;4971125;28;4063;-56
2022/04/11 12:01:33;;;;;;;;;;;;;;;21.38;43.31;101428.84;4971753;28;4235;-56
2022/04/11 12:06:45;;;;;;;;;;;;;;;21.39;43.48;101433.94;4971272;28;4438;-53
2022/04/11 12:09:12;;;;;;;;;;;;;;;21.40;43.34;101428.97;4965980;28;4080;-50
2022/04/11 12:11:38;;;;;;;;;;;;;;;21.41;43.42;101433.34;4968429;28;4188;-54
2022/04/11 12:14:05;;;;;;;;;;;;;;;21.39;43.46;101431.06;4962731;28;4255;-52
2022/04/11 12:16:32;;;;;;;;;;;;;;;21.42;43.52;101431.97;4972671;28;5521;-51
2022/04/11 12:18:59;;;;;;;;;;;;;;;21.41;43.41;101422.56;4964294;28;4199;-50
2022/04/11 12:21:39;;;;;;;;;;;;;;;21.41;43.62;101424.69;4969209;28;4078;-52
2022/04/11 12:24:06;;;;;;;;;;;;;;;21.37;43.57;101425.19;4967457;28;5436;-50
2022/04/11 12:26:33;;;;;;;;;;;;;;;21.41;43.52;101419.69;4973401;28;4224;-56
2022/04/11 12:29:03;;;;;;;;;;;;;;;21.40;43.57;101409.56;4968581;28;4200;-52
2022/04/11 12:31:29;;;;;;;;;;;;;;;21.42;43.41;101408.94;4967978;28;4097;-51
2022/04/11 12:33:55;;;;;;;;;;;;;;;21.57;43.37;101408.22;4964446;28;4260;-54
2022/04/11 12:36:22;;;;;;;;;;;;;;;21.46;43.38;101417.75;4964477;28;4486;-50
2022/04/11 12:38:52;;;;;;;;;;;;;;;21.44;43.64;101411.88;4964192;28;4263;-51
2022/04/11 12:41:22;;;;;;;;;;;;;;;21.43;43.48;101399.63;4965800;28;4996;-49
2022/04/11 12:44:18;;;;;;;;;;;;;;;21.42;43.76;101397.41;4962652;28;5363;-53
2022/04/11 12:46:45;;;;;;;;;;;;;;;21.41;43.84;101396.63;4944641;28;4090;-52
2022/04/11 12:49:12;;;;;;;;;;;;;;;21.43;43.59;101396.00;4962159;28;4258;-49
2022/04/11 12:51:39;;;;;;;;;;;;;;;21.45;43.69;101390.34;4962270;28;5311;-49
2022/04/11 12:54:10;;;;;;;;;;;;;;;21.44;43.71;101391.72;4966147;28;5012;-49
2022/04/11 12:56:37;;;;;;;;;;;;;;;21.44;43.68;101389.59;4972900;28;4199;-48